Kyokuho Maru No.15 — JI3715 — position and weather

sailwx.info

Track history (hours):
 
Tides and Currents Weather Stations Pressure Air Temp Water Temp Dewpoint Dewpoint Depression Visibility Wind Speed Wind Dir Waves Ship Positions

Kyokuho Maru No.15

Last reported at 2018-Jan-19 05:28 UTC. Time now 2018-Jan-19 05:59 UTC.
Position N 34°40' E 135°25'.

Length 63 m; draft 3.2 m.

Type: Tanker. MMSI: 431301714.

Date/timePositionNaut miles runAvg speedWind from/ knotsBaromVisibWave heightAir tempDewpointWater temp
2018-Jan-19 05:28N 34°40' E 135°25'0 0.0
2018-Jan-19 04:58N 34°40' E 135°25'0 0.0
2018-Jan-19 04:28N 34°40' E 135°25'0 0.0
2018-Jan-19 03:58N 34°40' E 135°25'0 0.0
2018-Jan-19 03:16N 34°40' E 135°25'0 0.0
2018-Jan-19 02:58N 34°40' E 135°25'0 0.0
2018-Jan-19 02:28N 34°40' E 135°25'0 0.0
2018-Jan-19 01:58N 34°40' E 135°25'0 0.0
2018-Jan-19 01:28N 34°40' E 135°25'1 1.5
2018-Jan-19 01:01N 34°39' E 135°25'3 6.6
2018-Jan-19 00:30N 34°38' E 135°29'0 0.0
2018-Jan-19 00:00N 34°38' E 135°29'0 0.0
2018-Jan-18 23:27N 34°38' E 135°29'0 0.0
2018-Jan-18 23:00N 34°38' E 135°29'0 0.0
2018-Jan-18 22:27N 34°38' E 135°29'0 0.0
2018-Jan-18 22:00N 34°38' E 135°29'0 0.0
2018-Jan-18 21:30N 34°38' E 135°29'0 0.1
2018-Jan-18 21:00N 34°38' E 135°29'0 0.1
2018-Jan-18 20:30N 34°38' E 135°29'0 0.0
2018-Jan-18 20:00N 34°38' E 135°29'0 0.1
2018-Jan-18 19:30N 34°38' E 135°29'0 0.1
2018-Jan-18 19:00N 34°38' E 135°29'0 0.0
2018-Jan-18 18:30N 34°38' E 135°29'0 0.1
2018-Jan-18 18:00N 34°38' E 135°29'0 0.0
2018-Jan-18 17:30N 34°38' E 135°29'0 0.0
2018-Jan-18 17:00N 34°38' E 135°29'0 0.0
2018-Jan-18 16:30N 34°38' E 135°29'0 0.1
2018-Jan-18 16:00N 34°38' E 135°29'0 0.0
2018-Jan-18 15:30N 34°38' E 135°29'0 0.0
2018-Jan-18 15:00N 34°38' E 135°29'0 0.1
2018-Jan-18 14:30N 34°38' E 135°29'0 0.1
2018-Jan-18 14:00N 34°38' E 135°29'0 0.0
2018-Jan-18 13:30N 34°38' E 135°29'0 0.1
2018-Jan-18 13:00N 34°38' E 135°29'0 0.0
2018-Jan-18 12:30N 34°38' E 135°29'0 0.0
2018-Jan-18 12:00N 34°38' E 135°29'0 0.0
2018-Jan-18 11:30N 34°38' E 135°29'0 0.0
2018-Jan-18 11:00N 34°38' E 135°29'0 0.0
2018-Jan-18 10:30N 34°38' E 135°29'0 0.0
2018-Jan-18 10:00N 34°38' E 135°29'0 0.0
2018-Jan-18 09:30N 34°38' E 135°29'0 0.0
2018-Jan-18 09:00N 34°38' E 135°29'0 0.1
2018-Jan-18 08:30N 34°38' E 135°29'0 0.0
2018-Jan-18 08:00N 34°38' E 135°29'0 0.1
2018-Jan-18 07:31N 34°38' E 135°29'2 4.5
2018-Jan-18 07:00N 34°39' E 135°26'3 5.7
2018-Jan-18 06:28N 34°40' E 135°23'0 1.0
2018-Jan-18 06:01N 34°40' E 135°22'2 3.1
2018-Jan-18 05:28N 34°41' E 135°24'0 0.0
2018-Jan-18 04:58N 34°41' E 135°24'0 0.0
2018-Jan-18 04:28N 34°41' E 135°24'0 0.0
2018-Jan-18 03:58N 34°41' E 135°24'0 0.0
2018-Jan-18 03:30N 34°41' E 135°24'0 0.0
2018-Jan-18 03:00N 34°41' E 135°24'0 0.0
2018-Jan-18 02:31N 34°41' E 135°24'0 0.0
2018-Jan-18 02:00N 34°41' E 135°24'0 0.0
2018-Jan-18 01:30N 34°41' E 135°24'0 0.0
2018-Jan-18 01:01N 34°41' E 135°24'5 5.3
2018-Jan-18 00:00N 34°40' E 135°17'0 0.0
2018-Jan-17 23:57N 34°40' E 135°17'  
2018-Jan-12 14:58N 35°36' E 140°06'0 0.0
2018-Jan-12 14:28N 35°36' E 140°06'0 0.0
2018-Jan-12 13:58N 35°36' E 140°06'0 0.0
2018-Jan-12 13:28N 35°36' E 140°06'0 0.0
2018-Jan-12 12:58N 35°36' E 140°06'0 0.0
2018-Jan-12 12:28N 35°36' E 140°06'0 0.0
2018-Jan-12 11:58N 35°36' E 140°06'0 0.0
2018-Jan-12 11:28N 35°36' E 140°06'0 0.0
2018-Jan-12 10:58N 35°36' E 140°06'0 0.0
2018-Jan-12 10:28N 35°36' E 140°06'0 0.0
2018-Jan-12 09:58N 35°36' E 140°06'0 0.0
2018-Jan-12 09:28N 35°36' E 140°06'0 0.0
2018-Jan-12 08:58N 35°36' E 140°06'0 0.0
2018-Jan-12 08:28N 35°36' E 140°06'0 0.0
2018-Jan-12 07:58N 35°36' E 140°06'0 0.0
2018-Jan-12 07:28N 35°36' E 140°06'0 0.0
2018-Jan-12 06:58N 35°36' E 140°06'0 0.0
2018-Jan-12 06:28N 35°36' E 140°06'0 0.0
2018-Jan-12 05:58N 35°36' E 140°06'0 0.0
2018-Jan-12 05:28N 35°36' E 140°06'0 0.0
2018-Jan-12 04:58N 35°36' E 140°06'0 0.0
2018-Jan-12 04:28N 35°36' E 140°06'0 0.0
2018-Jan-12 03:58N 35°36' E 140°06'0 0.0
2018-Jan-12 03:30N 35°36' E 140°06'4 8.6
2018-Jan-12 03:00N 35°34' E 140°02'612.1
2018-Jan-12 02:30N 35°29' E 139°57'1 2.4
2018-Jan-12 02:00N 35°28' E 139°56'2 4.5
2018-Jan-12 01:31N 35°27' E 139°58'0 0.0
2018-Jan-11 23:27N 35°27' E 139°58'3 6.6
2018-Jan-11 23:00N 35°28' E 139°55'0 0.4
2018-Jan-11 22:19N 35°28' E 139°55'0 0.0
2018-Jan-11 21:58N 35°28' E 139°55'0 0.0
2018-Jan-11 21:28N 35°28' E 139°55'0 0.0
2018-Jan-11 20:58N 35°28' E 139°55'0 0.0
2018-Jan-11 20:25N 35°28' E 139°55'0 0.0
2018-Jan-11 19:58N 35°28' E 139°55'0 0.0
2018-Jan-11 19:28N 35°28' E 139°55'0 0.0
2018-Jan-11 18:43N 35°28' E 139°55'0 0.2
2018-Jan-11 18:28N 35°28' E 139°55'0 0.1
2018-Jan-11 17:58N 35°28' E 139°55'0 0.1
2018-Jan-11 17:28N 35°28' E 139°55'0 0.0
2018-Jan-11 16:55N 35°28' E 139°55'0 0.1
2018-Jan-11 16:28N 35°28' E 139°55'0 0.1
2018-Jan-11 15:58N 35°28' E 139°55'0 0.0
2018-Jan-11 15:28N 35°28' E 139°55'0 0.0
2018-Jan-11 14:55N 35°28' E 139°55'0 0.0
2018-Jan-11 14:28N 35°28' E 139°55'0 0.0
2018-Jan-11 13:58N 35°28' E 139°55'0 0.0
2018-Jan-11 13:28N 35°28' E 139°55'0 0.0
2018-Jan-11 12:58N 35°28' E 139°55'0 0.0
2018-Jan-11 12:28N 35°28' E 139°55'0 0.0
2018-Jan-11 11:52N 35°28' E 139°55'0 0.0
2018-Jan-11 11:16N 35°28' E 139°55'0 0.0
2018-Jan-11 10:58N 35°28' E 139°55'0 0.0
2018-Jan-11 10:28N 35°28' E 139°55'0 0.0
2018-Jan-11 09:55N 35°28' E 139°55'0 0.0
2018-Jan-11 09:28N 35°28' E 139°55'0 0.0
2018-Jan-11 08:58N 35°28' E 139°55'0 0.1
2018-Jan-11 08:28N 35°28' E 139°55'4 7.4
2018-Jan-11 07:58N 35°30' E 139°51'5 9.9
2018-Jan-11 07:30N 35°31' E 139°46'0 0.6
2018-Jan-11 06:58N 35°32' E 139°45'0 0.0
2018-Jan-11 06:22N 35°32' E 139°45'0 0.0
2018-Jan-11 05:52N 35°32' E 139°45'0 0.0
2018-Jan-11 05:22N 35°32' E 139°45'0 0.4
2018-Jan-11 05:00N 35°32' E 139°46'3 6.4
2018-Jan-11 04:30N 35°30' E 139°49'1 2.1
2018-Jan-11 04:00N 35°29' E 139°49'3 5.0
2018-Jan-11 03:30N 35°27' E 139°48'611.0
2018-Jan-11 03:00N 35°22' E 139°45'5 9.9
2018-Jan-11 02:30N 35°17' E 139°46'510.8
2018-Jan-11 02:00N 35°11' E 139°47'611.1
2018-Jan-11 01:30N 35°06' E 139°44'610.8
2018-Jan-11 00:58N 35°02' E 139°39'611.6
2018-Jan-11 00:27N 34°59' E 139°33'613.5
2018-Jan-10 23:59N 34°56' E 139°26'713.9
2018-Jan-10 23:29N 34°52' E 139°20'612.6
2018-Jan-10 22:59N 34°47' E 139°14'711.6
2018-Jan-10 22:21N 34°42' E 139°07'411.0
2018-Jan-10 22:00N 34°40' E 139°04'612.1
2018-Jan-10 21:29N 34°36' E 138°58'713.0
2018-Jan-10 20:59N 34°34' E 138°50'812.3
2018-Jan-10 20:20N 34°34' E 138°40'612.5
2018-Jan-10 19:51N 34°34' E 138°33'5812.0
2018-Jan-10 15:00N 34°33' E 137°22'122 9.2
2018-Jan-10 01:49N 33°49' E 135°06'311.1
2018-Jan-10 01:30N 33°51' E 135°03'510.5
2018-Jan-10 01:00N 33°57' E 135°03'510.9
2018-Jan-10 00:30N 34°02' E 135°03'611.3
2018-Jan-10 00:00N 34°08' E 135°03'611.3
2018-Jan-09 23:30N 34°13' E 135°03'611.8
2018-Jan-09 23:00N 34°19' E 135°04'510.9
2018-Jan-09 22:31N 34°23' E 135°08'510.5
2018-Jan-09 22:01N 34°27' E 135°12'510.4
2018-Jan-09 21:31N 34°30' E 135°18'3 5.7
2018-Jan-09 20:59N 34°31' E 135°21'0 0.0
2018-Jan-09 20:29N 34°31' E 135°21'0 0.0
2018-Jan-09 20:00N 34°31' E 135°21'0 0.0
2018-Jan-09 19:29N 34°31' E 135°21'0 0.0
2018-Jan-09 18:59N 34°31' E 135°21'0 0.0
2018-Jan-09 18:30N 34°31' E 135°21'0 0.0
2018-Jan-09 17:59N 34°31' E 135°21'0 0.0
2018-Jan-09 17:30N 34°31' E 135°21'0 0.0
2018-Jan-09 17:00N 34°31' E 135°21'0 0.0
2018-Jan-09 16:30N 34°31' E 135°21'0 0.0
2018-Jan-09 16:00N 34°31' E 135°21'0 0.0
2018-Jan-09 15:30N 34°31' E 135°21'0 0.0
2018-Jan-09 15:00N 34°31' E 135°21'0 0.0
2018-Jan-09 14:30N 34°31' E 135°21'0 0.0
2018-Jan-09 13:57N 34°31' E 135°21'0 0.0
2018-Jan-09 13:30N 34°31' E 135°21'0 0.0
2018-Jan-09 13:00N 34°31' E 135°21'0 0.0
2018-Jan-09 12:29N 34°31' E 135°21'0 0.0
2018-Jan-09 12:00N 34°31' E 135°21'0 0.0
2018-Jan-09 11:26N 34°31' E 135°21'0 0.0
2018-Jan-09 10:59N 34°31' E 135°21'0 0.0
2018-Jan-09 10:29N 34°31' E 135°21'0 0.0
2018-Jan-09 10:00N 34°31' E 135°21'0 0.0
2018-Jan-09 09:29N 34°31' E 135°21'0 0.0
2018-Jan-09 08:59N 34°31' E 135°21'0 0.0
2018-Jan-09 08:29N 34°31' E 135°21'0 0.0
2018-Jan-09 07:59N 34°31' E 135°21'0 0.0
2018-Jan-09 07:29N 34°31' E 135°21'0 0.0
2018-Jan-09 06:54N 34°31' E 135°21'0 0.0
2018-Jan-09 06:29N 34°31' E 135°21'0 0.1
2018-Jan-09 05:59N 34°31' E 135°21'0 0.0
2018-Jan-09 05:29N 34°31' E 135°21'  
Track history (hours):
 
Tides and Currents Weather Stations Pressure Air Temp Water Temp Dewpoint Dewpoint Depression Visibility Wind Speed Wind Dir Waves Ship Positions

Kyokuho Maru No.15

Last reported at 2018-Jan-19 05:28 UTC. Time now 2018-Jan-19 05:59 UTC.
Position N 34°40' E 135°25'.

Length 63 m; draft 3.2 m.

Type: Tanker. MMSI: 431301714.

Date/timePositionNaut miles runAvg speedWind from/ knotsBaromVisibWave heightAir tempDewpointWater temp
2018-Jan-19 05:28N 34°40' E 135°25'0 0.0
2018-Jan-19 04:58N 34°40' E 135°25'0 0.0
2018-Jan-19 04:28N 34°40' E 135°25'0 0.0
2018-Jan-19 03:58N 34°40' E 135°25'0 0.0
2018-Jan-19 03:16N 34°40' E 135°25'0 0.0
2018-Jan-19 02:58N 34°40' E 135°25'0 0.0
2018-Jan-19 02:28N 34°40' E 135°25'0 0.0
2018-Jan-19 01:58N 34°40' E 135°25'0 0.0
2018-Jan-19 01:28N 34°40' E 135°25'1 1.5
2018-Jan-19 01:01N 34°39' E 135°25'3 6.6
2018-Jan-19 00:30N 34°38' E 135°29'0 0.0
2018-Jan-19 00:00N 34°38' E 135°29'0 0.0
2018-Jan-18 23:27N 34°38' E 135°29'0 0.0
2018-Jan-18 23:00N 34°38' E 135°29'0 0.0
2018-Jan-18 22:27N 34°38' E 135°29'0 0.0
2018-Jan-18 22:00N 34°38' E 135°29'0 0.0
2018-Jan-18 21:30N 34°38' E 135°29'0 0.1
2018-Jan-18 21:00N 34°38' E 135°29'0 0.1
2018-Jan-18 20:30N 34°38' E 135°29'0 0.0
2018-Jan-18 20:00N 34°38' E 135°29'0 0.1
2018-Jan-18 19:30N 34°38' E 135°29'0 0.1
2018-Jan-18 19:00N 34°38' E 135°29'0 0.0
2018-Jan-18 18:30N 34°38' E 135°29'0 0.1
2018-Jan-18 18:00N 34°38' E 135°29'0 0.0
2018-Jan-18 17:30N 34°38' E 135°29'0 0.0
2018-Jan-18 17:00N 34°38' E 135°29'0 0.0
2018-Jan-18 16:30N 34°38' E 135°29'0 0.1
2018-Jan-18 16:00N 34°38' E 135°29'0 0.0
2018-Jan-18 15:30N 34°38' E 135°29'0 0.0
2018-Jan-18 15:00N 34°38' E 135°29'0 0.1
2018-Jan-18 14:30N 34°38' E 135°29'0 0.1
2018-Jan-18 14:00N 34°38' E 135°29'0 0.0
2018-Jan-18 13:30N 34°38' E 135°29'0 0.1
2018-Jan-18 13:00N 34°38' E 135°29'0 0.0
2018-Jan-18 12:30N 34°38' E 135°29'0 0.0
2018-Jan-18 12:00N 34°38' E 135°29'0 0.0
2018-Jan-18 11:30N 34°38' E 135°29'0 0.0
2018-Jan-18 11:00N 34°38' E 135°29'0 0.0
2018-Jan-18 10:30N 34°38' E 135°29'0 0.0
2018-Jan-18 10:00N 34°38' E 135°29'0 0.0
2018-Jan-18 09:30N 34°38' E 135°29'0 0.0
2018-Jan-18 09:00N 34°38' E 135°29'0 0.1
2018-Jan-18 08:30N 34°38' E 135°29'0 0.0
2018-Jan-18 08:00N 34°38' E 135°29'0 0.1
2018-Jan-18 07:31N 34°38' E 135°29'2 4.5
2018-Jan-18 07:00N 34°39' E 135°26'3 5.7
2018-Jan-18 06:28N 34°40' E 135°23'0 1.0
2018-Jan-18 06:01N 34°40' E 135°22'2 3.1
2018-Jan-18 05:28N 34°41' E 135°24'0 0.0
2018-Jan-18 04:58N 34°41' E 135°24'0 0.0
2018-Jan-18 04:28N 34°41' E 135°24'0 0.0
2018-Jan-18 03:58N 34°41' E 135°24'0 0.0
2018-Jan-18 03:30N 34°41' E 135°24'0 0.0
2018-Jan-18 03:00N 34°41' E 135°24'0 0.0
2018-Jan-18 02:31N 34°41' E 135°24'0 0.0
2018-Jan-18 02:00N 34°41' E 135°24'0 0.0
2018-Jan-18 01:30N 34°41' E 135°24'0 0.0
2018-Jan-18 01:01N 34°41' E 135°24'5 5.3
2018-Jan-18 00:00N 34°40' E 135°17'0 0.0
2018-Jan-17 23:57N 34°40' E 135°17'  
2018-Jan-12 14:58N 35°36' E 140°06'0 0.0
2018-Jan-12 14:28N 35°36' E 140°06'0 0.0
2018-Jan-12 13:58N 35°36' E 140°06'0 0.0
2018-Jan-12 13:28N 35°36' E 140°06'0 0.0
2018-Jan-12 12:58N 35°36' E 140°06'0 0.0
2018-Jan-12 12:28N 35°36' E 140°06'0 0.0
2018-Jan-12 11:58N 35°36' E 140°06'0 0.0
2018-Jan-12 11:28N 35°36' E 140°06'0 0.0
2018-Jan-12 10:58N 35°36' E 140°06'0 0.0
2018-Jan-12 10:28N 35°36' E 140°06'0 0.0
2018-Jan-12 09:58N 35°36' E 140°06'0 0.0
2018-Jan-12 09:28N 35°36' E 140°06'0 0.0
2018-Jan-12 08:58N 35°36' E 140°06'0 0.0
2018-Jan-12 08:28N 35°36' E 140°06'0 0.0
2018-Jan-12 07:58N 35°36' E 140°06'0 0.0
2018-Jan-12 07:28N 35°36' E 140°06'0 0.0
2018-Jan-12 06:58N 35°36' E 140°06'0 0.0
2018-Jan-12 06:28N 35°36' E 140°06'0 0.0
2018-Jan-12 05:58N 35°36' E 140°06'0 0.0
2018-Jan-12 05:28N 35°36' E 140°06'0 0.0
2018-Jan-12 04:58N 35°36' E 140°06'0 0.0
2018-Jan-12 04:28N 35°36' E 140°06'0 0.0
2018-Jan-12 03:58N 35°36' E 140°06'0 0.0
2018-Jan-12 03:30N 35°36' E 140°06'4 8.6
2018-Jan-12 03:00N 35°34' E 140°02'612.1
2018-Jan-12 02:30N 35°29' E 139°57'1 2.4
2018-Jan-12 02:00N 35°28' E 139°56'2 4.5
2018-Jan-12 01:31N 35°27' E 139°58'0 0.0
2018-Jan-11 23:27N 35°27' E 139°58'3 6.6
2018-Jan-11 23:00N 35°28' E 139°55'0 0.4
2018-Jan-11 22:19N 35°28' E 139°55'0 0.0
2018-Jan-11 21:58N 35°28' E 139°55'0 0.0
2018-Jan-11 21:28N 35°28' E 139°55'0 0.0
2018-Jan-11 20:58N 35°28' E 139°55'0 0.0
2018-Jan-11 20:25N 35°28' E 139°55'0 0.0
2018-Jan-11 19:58N 35°28' E 139°55'0 0.0
2018-Jan-11 19:28N 35°28' E 139°55'0 0.0
2018-Jan-11 18:43N 35°28' E 139°55'0 0.2
2018-Jan-11 18:28N 35°28' E 139°55'0 0.1
2018-Jan-11 17:58N 35°28' E 139°55'0 0.1
2018-Jan-11 17:28N 35°28' E 139°55'0 0.0
2018-Jan-11 16:55N 35°28' E 139°55'0 0.1
2018-Jan-11 16:28N 35°28' E 139°55'0 0.1
2018-Jan-11 15:58N 35°28' E 139°55'0 0.0
2018-Jan-11 15:28N 35°28' E 139°55'0 0.0
2018-Jan-11 14:55N 35°28' E 139°55'0 0.0
2018-Jan-11 14:28N 35°28' E 139°55'0 0.0
2018-Jan-11 13:58N 35°28' E 139°55'0 0.0
2018-Jan-11 13:28N 35°28' E 139°55'0 0.0
2018-Jan-11 12:58N 35°28' E 139°55'0 0.0
2018-Jan-11 12:28N 35°28' E 139°55'0 0.0
2018-Jan-11 11:52N 35°28' E 139°55'0 0.0
2018-Jan-11 11:16N 35°28' E 139°55'0 0.0
2018-Jan-11 10:58N 35°28' E 139°55'0 0.0
2018-Jan-11 10:28N 35°28' E 139°55'0 0.0
2018-Jan-11 09:55N 35°28' E 139°55'0 0.0
2018-Jan-11 09:28N 35°28' E 139°55'0 0.0
2018-Jan-11 08:58N 35°28' E 139°55'0 0.1
2018-Jan-11 08:28N 35°28' E 139°55'4 7.4
2018-Jan-11 07:58N 35°30' E 139°51'5 9.9
2018-Jan-11 07:30N 35°31' E 139°46'0 0.6
2018-Jan-11 06:58N 35°32' E 139°45'0 0.0
2018-Jan-11 06:22N 35°32' E 139°45'0 0.0
2018-Jan-11 05:52N 35°32' E 139°45'0 0.0
2018-Jan-11 05:22N 35°32' E 139°45'0 0.4
2018-Jan-11 05:00N 35°32' E 139°46'3 6.4
2018-Jan-11 04:30N 35°30' E 139°49'1 2.1
2018-Jan-11 04:00N 35°29' E 139°49'3 5.0
2018-Jan-11 03:30N 35°27' E 139°48'611.0
2018-Jan-11 03:00N 35°22' E 139°45'5 9.9
2018-Jan-11 02:30N 35°17' E 139°46'510.8
2018-Jan-11 02:00N 35°11' E 139°47'611.1
2018-Jan-11 01:30N 35°06' E 139°44'610.8
2018-Jan-11 00:58N 35°02' E 139°39'611.6
2018-Jan-11 00:27N 34°59' E 139°33'613.5
2018-Jan-10 23:59N 34°56' E 139°26'713.9
2018-Jan-10 23:29N 34°52' E 139°20'612.6
2018-Jan-10 22:59N 34°47' E 139°14'711.6
2018-Jan-10 22:21N 34°42' E 139°07'411.0
2018-Jan-10 22:00N 34°40' E 139°04'612.1
2018-Jan-10 21:29N 34°36' E 138°58'713.0
2018-Jan-10 20:59N 34°34' E 138°50'812.3
2018-Jan-10 20:20N 34°34' E 138°40'612.5
2018-Jan-10 19:51N 34°34' E 138°33'5812.0
2018-Jan-10 15:00N 34°33' E 137°22'122 9.2
2018-Jan-10 01:49N 33°49' E 135°06'311.1
2018-Jan-10 01:30N 33°51' E 135°03'510.5
2018-Jan-10 01:00N 33°57' E 135°03'510.9
2018-Jan-10 00:30N 34°02' E 135°03'611.3
2018-Jan-10 00:00N 34°08' E 135°03'611.3
2018-Jan-09 23:30N 34°13' E 135°03'611.8
2018-Jan-09 23:00N 34°19' E 135°04'510.9
2018-Jan-09 22:31N 34°23' E 135°08'510.5
2018-Jan-09 22:01N 34°27' E 135°12'510.4
2018-Jan-09 21:31N 34°30' E 135°18'3 5.7
2018-Jan-09 20:59N 34°31' E 135°21'0 0.0
2018-Jan-09 20:29N 34°31' E 135°21'0 0.0
2018-Jan-09 20:00N 34°31' E 135°21'0 0.0
2018-Jan-09 19:29N 34°31' E 135°21'0 0.0
2018-Jan-09 18:59N 34°31' E 135°21'0 0.0
2018-Jan-09 18:30N 34°31' E 135°21'0 0.0
2018-Jan-09 17:59N 34°31' E 135°21'0 0.0
2018-Jan-09 17:30N 34°31' E 135°21'0 0.0
2018-Jan-09 17:00N 34°31' E 135°21'0 0.0
2018-Jan-09 16:30N 34°31' E 135°21'0 0.0
2018-Jan-09 16:00N 34°31' E 135°21'0 0.0
2018-Jan-09 15:30N 34°31' E 135°21'0 0.0
2018-Jan-09 15:00N 34°31' E 135°21'0 0.0
2018-Jan-09 14:30N 34°31' E 135°21'0 0.0
2018-Jan-09 13:57N 34°31' E 135°21'0 0.0
2018-Jan-09 13:30N 34°31' E 135°21'0 0.0
2018-Jan-09 13:00N 34°31' E 135°21'0 0.0
2018-Jan-09 12:29N 34°31' E 135°21'0 0.0
2018-Jan-09 12:00N 34°31' E 135°21'0 0.0
2018-Jan-09 11:26N 34°31' E 135°21'0 0.0
2018-Jan-09 10:59N 34°31' E 135°21'0 0.0
2018-Jan-09 10:29N 34°31' E 135°21'0 0.0
2018-Jan-09 10:00N 34°31' E 135°21'0 0.0
2018-Jan-09 09:29N 34°31' E 135°21'0 0.0
2018-Jan-09 08:59N 34°31' E 135°21'0 0.0
2018-Jan-09 08:29N 34°31' E 135°21'0 0.0
2018-Jan-09 07:59N 34°31' E 135°21'0 0.0
2018-Jan-09 07:29N 34°31' E 135°21'0 0.0
2018-Jan-09 06:54N 34°31' E 135°21'0 0.0
2018-Jan-09 06:29N 34°31' E 135°21'0 0.1
2018-Jan-09 05:59N 34°31' E 135°21'0 0.0
2018-Jan-09 05:29N 34°31' E 135°21'  

Dump ship's entire track history